createdAt,value
2019-01-18T00:01:10.326Z,80.51
2019-01-18T00:04:17.033Z,80.65
2019-01-18T00:07:24.983Z,79.63
2019-01-18T00:10:31.620Z,79.35
2019-01-18T00:13:37.854Z,79.12
2019-01-18T00:16:44.751Z,80.09
2019-01-18T00:19:51.178Z,80.92
2019-01-18T00:22:57.816Z,80.07
2019-01-18T00:26:04.509Z,80.05
2019-01-18T00:29:11.005Z,80.59
2019-01-18T00:32:17.662Z,81.15
2019-01-18T00:35:24.353Z,80.67
2019-01-18T00:38:31.964Z,81.86
2019-01-18T00:41:38.671Z,81.54
2019-01-18T00:44:44.862Z,80.98
2019-01-18T00:47:51.261Z,81.09
2019-01-18T00:50:57.589Z,81.11
2019-01-18T00:54:04.294Z,80.84
2019-01-18T00:57:11.032Z,80.75
2019-01-18T01:00:20.533Z,80.76
2019-01-18T01:03:27.310Z,80.70
2019-01-18T01:06:36.818Z,80.28
2019-01-18T01:09:43.324Z,81.48
2019-01-18T01:12:49.931Z,80.72
2019-01-18T01:15:57.030Z,80.39
2019-01-18T01:19:03.222Z,80.65
2019-01-18T01:22:10.024Z,81.03
2019-01-18T01:25:16.626Z,79.97
2019-01-18T01:28:24.077Z,81.03
2019-01-18T01:31:31.035Z,80.68
2019-01-18T01:34:37.323Z,80.74
2019-01-18T01:37:43.921Z,80.36
2019-01-18T01:40:50.489Z,80.42
2019-01-18T01:43:57.099Z,81.14
2019-01-18T01:47:03.531Z,81.09
2019-01-18T01:50:12.855Z,81.82
2019-01-18T01:53:19.699Z,81.17
2019-01-18T01:56:25.775Z,81.28
2019-01-18T01:59:32.338Z,81.75
2019-01-18T02:02:38.961Z,83.80
2019-01-18T02:05:45.499Z,83.73
2019-01-18T02:08:52.085Z,84.49
2019-01-18T02:11:58.616Z,85.19
2019-01-18T02:15:06.477Z,85.54
2019-01-18T02:18:13.183Z,85.74
2019-01-18T02:21:20.201Z,86.01
2019-01-18T02:24:27.056Z,86.58
2019-01-18T02:27:33.841Z,87.39
2019-01-18T02:30:40.483Z,88.75
2019-01-18T02:33:48.108Z,88.71
2019-01-18T02:36:54.882Z,89.29
2019-01-18T02:40:01.869Z,89.52
2019-01-18T02:43:08.546Z,89.20
2019-01-18T02:46:15.622Z,89.25
2019-01-18T02:49:22.146Z,88.78
2019-01-18T02:52:28.665Z,88.88
2019-01-18T02:55:35.748Z,87.62
2019-01-18T02:58:42.330Z,87.46
2019-01-18T03:01:49.033Z,86.09
2019-01-18T03:04:55.917Z,84.58
2019-01-18T03:08:02.711Z,84.50
2019-01-18T03:11:09.241Z,84.70
2019-01-18T03:14:16.394Z,84.38
2019-01-18T03:17:23.757Z,83.58
2019-01-18T03:20:30.262Z,83.49
2019-01-18T03:23:36.961Z,82.94
2019-01-18T03:26:43.526Z,82.22
2019-01-18T03:29:49.851Z,82.00
2019-01-18T03:32:56.630Z,82.45
2019-01-18T03:36:03.267Z,81.06
2019-01-18T03:39:10.925Z,81.71
2019-01-18T03:42:17.450Z,81.07
2019-01-18T03:45:24.337Z,80.15
2019-01-18T03:48:31.167Z,79.47
2019-01-18T03:51:39.880Z,80.11
2019-01-18T03:54:46.664Z,80.04
2019-01-18T03:57:54.055Z,78.80
2019-01-18T04:01:00.925Z,78.97
2019-01-18T04:04:07.469Z,78.21
2019-01-18T04:07:15.284Z,79.29
2019-01-18T04:10:22.161Z,79.43
2019-01-18T04:13:29.860Z,79.09
2019-01-18T04:16:38.464Z,78.42
2019-01-18T04:19:44.846Z,78.81
2019-01-18T04:22:51.440Z,78.45
2019-01-18T04:25:58.508Z,78.15
2019-01-18T04:29:05.193Z,77.57
2019-01-18T04:32:11.932Z,77.94
2019-01-18T04:35:18.326Z,77.85
2019-01-18T04:38:25.025Z,77.97
2019-01-18T04:41:31.424Z,78.48
2019-01-18T04:44:37.745Z,78.32
2019-01-18T04:47:44.245Z,78.58
2019-01-18T04:50:50.870Z,79.55
2019-01-18T04:53:57.376Z,79.40
2019-01-18T04:57:04.276Z,79.14
2019-01-18T05:00:19.826Z,79.80
2019-01-18T05:03:26.332Z,79.80
2019-01-18T05:06:33.095Z,78.91
2019-01-18T05:09:40.043Z,79.01
2019-01-18T05:12:47.574Z,79.35
2019-01-18T05:15:54.052Z,79.42
2019-01-18T05:19:00.734Z,79.15
2019-01-18T05:22:07.534Z,79.22
2019-01-18T05:25:14.127Z,79.42
2019-01-18T05:28:20.600Z,78.40
2019-01-18T05:31:27.149Z,77.65
2019-01-18T05:34:34.180Z,74.53
2019-01-18T05:37:41.050Z,74.96
2019-01-18T05:40:48.216Z,74.70
2019-01-18T05:43:54.715Z,74.81
2019-01-18T05:47:01.892Z,73.38
2019-01-18T05:50:12.885Z,72.66
2019-01-18T05:53:19.438Z,71.99
2019-01-18T05:56:26.488Z,71.93
2019-01-18T05:59:33.359Z,70.64
2019-01-18T06:02:40.046Z,70.91
2019-01-18T06:05:46.870Z,69.73
2019-01-18T06:08:53.202Z,68.82
2019-01-18T06:12:00.133Z,69.76
2019-01-18T06:15:07.408Z,70.16
2019-01-18T06:18:14.602Z,69.27
2019-01-18T06:21:21.576Z,69.73
2019-01-18T06:24:28.436Z,70.18
2019-01-18T06:27:35.264Z,69.75
2019-01-18T06:30:41.834Z,70.02
2019-01-18T06:33:48.354Z,72.23
2019-01-18T06:36:54.918Z,74.34
2019-01-18T06:40:01.512Z,76.41
2019-01-18T06:43:08.507Z,77.28
2019-01-18T06:46:15.748Z,77.48
2019-01-18T06:49:22.398Z,78.20
2019-01-18T06:52:29.354Z,78.84
2019-01-18T06:55:35.991Z,79.39
2019-01-18T06:58:42.747Z,79.99
2019-01-18T07:01:49.951Z,80.28
2019-01-18T07:04:56.517Z,80.51
2019-01-18T07:08:03.689Z,81.69
2019-01-18T07:11:10.376Z,81.31
2019-01-18T07:14:17.393Z,81.35
2019-01-18T07:17:24.981Z,82.23
2019-01-18T07:20:32.049Z,82.99
2019-01-18T07:23:38.478Z,84.22
2019-01-18T07:26:45.415Z,83.48
2019-01-18T07:29:51.894Z,83.81
2019-01-18T07:32:59.032Z,85.67
2019-01-18T07:36:05.878Z,85.82
2019-01-18T07:39:12.535Z,84.46
2019-01-18T07:42:18.934Z,85.76
2019-01-18T07:45:27.227Z,85.35
2019-01-18T07:48:33.609Z,85.78
2019-01-18T07:51:40.246Z,86.28
2019-01-18T07:54:46.716Z,84.79
2019-01-18T07:57:53.627Z,83.81
2019-01-18T08:01:00.392Z,83.62
2019-01-18T08:04:06.818Z,83.89
2019-01-18T08:07:13.706Z,85.17
2019-01-18T08:10:21.106Z,85.10
2019-01-18T08:13:28.117Z,83.75
2019-01-18T08:16:35.670Z,83.26
2019-01-18T08:19:42.828Z,83.19
2019-01-18T08:22:51.182Z,84.04
2019-01-18T08:25:57.940Z,84.21
2019-01-18T08:29:04.958Z,83.35
2019-01-18T08:32:13.238Z,82.78
2019-01-18T08:35:20.849Z,82.96
2019-01-18T08:38:27.626Z,83.27
2019-01-18T08:41:34.388Z,81.64
2019-01-18T08:44:40.837Z,83.68
2019-01-18T08:51:26.683Z,83.62
2019-01-18T08:54:33.570Z,82.91
2019-01-18T08:57:40.174Z,83.19
2019-01-18T09:00:47.358Z,83.38
2019-01-18T09:03:53.967Z,82.81
2019-01-18T09:07:00.357Z,84.46
2019-01-18T09:10:08.943Z,84.31
2019-01-18T09:13:18.389Z,85.35
2019-01-18T09:16:25.131Z,83.88
2019-01-18T09:19:31.706Z,84.84
2019-01-18T09:22:38.403Z,83.97
2019-01-18T09:25:45.199Z,84.03
2019-01-18T09:28:54.973Z,82.48
2019-01-18T09:32:02.185Z,81.75
2019-01-18T09:35:10.970Z,79.85
2019-01-18T09:38:18.735Z,79.30
2019-01-18T09:41:25.515Z,77.45
2019-01-18T09:44:32.040Z,76.23
2019-01-18T09:47:38.406Z,73.94
2019-01-18T09:50:45.031Z,73.59
2019-01-18T09:53:52.119Z,72.41
2019-01-18T09:56:58.690Z,71.49
2019-01-18T10:00:08.998Z,70.63
2019-01-18T10:03:15.329Z,70.21
2019-01-18T10:06:22.179Z,70.26
2019-01-18T10:09:29.438Z,70.68
2019-01-18T10:12:38.733Z,69.97
2019-01-18T10:15:47.148Z,66.93
2019-01-18T10:18:55.918Z,66.04
2019-01-18T10:22:02.659Z,65.71
2019-01-18T10:25:10.790Z,66.08
2019-01-18T10:28:17.332Z,65.05
2019-01-18T10:31:24.161Z,65.08
2019-01-18T10:34:30.814Z,63.33
2019-01-18T10:37:38.198Z,60.84
2019-01-18T10:40:44.939Z,60.82
2019-01-18T10:43:51.289Z,60.86
2019-01-18T10:46:57.985Z,62.42
2019-01-18T10:50:06.312Z,59.11
2019-01-18T10:53:12.903Z,61.05
2019-01-18T10:56:20.417Z,58.12
2019-01-18T10:59:26.848Z,59.28
2019-01-18T11:02:33.478Z,59.18
2019-01-18T11:05:40.176Z,58.15
2019-01-18T11:08:47.086Z,57.18
2019-01-18T11:11:54.061Z,59.12
2019-01-18T11:15:00.782Z,58.97
2019-01-18T11:18:07.558Z,58.53
2019-01-18T11:21:17.399Z,56.67
2019-01-18T11:24:23.997Z,56.89
2019-01-18T11:27:30.408Z,57.10
2019-01-18T11:30:37.347Z,56.94
2019-01-18T11:33:43.891Z,57.13
2019-01-18T11:36:50.779Z,57.84
2019-01-18T11:39:58.622Z,57.14
2019-01-18T11:43:06.093Z,55.82
2019-01-18T11:46:12.674Z,53.73
2019-01-18T11:49:19.367Z,54.75
2019-01-18T11:52:26.401Z,54.18
2019-01-18T11:55:33.276Z,54.15
2019-01-18T11:58:39.963Z,55.51
2019-01-18T12:01:47.666Z,54.13
2019-01-18T12:04:54.415Z,56.46
2019-01-18T12:08:01.804Z,57.08
2019-01-18T12:11:11.757Z,55.86
2019-01-18T12:14:36.913Z,55.73
2019-01-18T12:17:44.612Z,55.66
2019-01-18T12:20:51.682Z,54.50
2019-01-18T12:23:57.919Z,54.86
2019-01-18T12:27:04.737Z,54.14
2019-01-18T12:30:18.449Z,55.10
2019-01-18T12:33:25.503Z,55.07
2019-01-18T12:36:32.534Z,54.79
2019-01-18T12:39:40.125Z,55.26
2019-01-18T12:42:47.000Z,56.80
2019-01-18T12:45:54.313Z,58.12
2019-01-18T12:49:01.655Z,56.98
2019-01-18T12:52:08.330Z,57.25
2019-01-18T12:55:15.261Z,56.98
2019-01-18T12:58:21.868Z,56.88
2019-01-18T13:01:29.056Z,63.53
2019-01-18T13:04:35.975Z,64.19
2019-01-18T13:07:42.937Z,63.55
2019-01-18T13:10:53.710Z,62.47
2019-01-18T13:14:00.541Z,64.02
2019-01-18T13:17:08.225Z,65.07
2019-01-18T13:20:16.260Z,63.70
2019-01-18T13:23:23.761Z,65.04
2019-01-18T13:26:31.420Z,60.86
2019-01-18T13:29:38.683Z,62.85
2019-01-18T13:32:45.662Z,65.60
2019-01-18T13:35:53.924Z,65.30
2019-01-18T13:39:00.704Z,63.60
2019-01-18T13:42:10.275Z,66.18
2019-01-18T13:45:17.596Z,64.99
2019-01-18T13:48:24.530Z,65.31
2019-01-18T13:51:31.273Z,67.14
2019-01-18T13:54:38.161Z,63.59
2019-01-18T13:57:46.646Z,64.70
2019-01-18T14:00:53.370Z,67.67
2019-01-18T14:04:00.399Z,66.16
2019-01-18T14:07:07.874Z,60.68
2019-01-18T14:10:23.196Z,61.25
2019-01-18T14:13:30.370Z,67.98
2019-01-18T14:16:38.652Z,66.48
2019-01-18T14:19:45.532Z,63.34
2019-01-18T14:22:53.065Z,65.49
2019-01-18T14:26:04.631Z,66.67
2019-01-18T14:29:11.912Z,65.56
2019-01-18T14:32:18.963Z,67.39
2019-01-18T14:35:26.238Z,67.00
2019-01-18T14:38:32.977Z,68.51
2019-01-18T14:41:39.838Z,69.05
2019-01-18T14:44:46.705Z,69.23
2019-01-18T14:47:53.096Z,70.10
2019-01-18T14:50:59.929Z,68.53
2019-01-18T14:54:09.206Z,69.62
2019-01-18T14:57:16.324Z,69.28
2019-01-18T15:00:25.401Z,72.39
2019-01-18T15:03:32.686Z,74.43
2019-01-18T15:06:39.849Z,75.88
2019-01-18T15:09:47.043Z,76.71
2019-01-18T15:12:56.700Z,75.23
2019-01-18T15:16:03.504Z,74.31
2019-01-18T15:19:10.932Z,76.92
2019-01-18T15:22:17.968Z,75.71
2019-01-18T15:25:25.546Z,75.35
2019-01-18T15:28:32.458Z,76.64
2019-01-18T15:31:41.180Z,77.34
2019-01-18T15:34:48.104Z,77.75
2019-01-18T15:37:54.989Z,78.17
2019-01-18T15:41:02.113Z,78.73
2019-01-18T15:44:17.166Z,78.52
2019-01-18T15:47:25.401Z,79.05
2019-01-18T15:50:36.086Z,79.68
2019-01-18T15:53:43.371Z,79.62
2019-01-18T15:56:50.448Z,80.32
2019-01-18T15:59:57.512Z,81.45
2019-01-18T16:03:08.051Z,80.71
2019-01-18T16:06:15.339Z,80.96
2019-01-18T16:09:22.406Z,81.80
2019-01-18T16:12:29.721Z,82.45
2019-01-18T16:15:52.828Z,82.90
2019-01-18T16:19:00.485Z,82.74
2019-01-18T16:22:07.952Z,82.82
2019-01-18T16:25:18.164Z,84.13
2019-01-18T16:28:25.516Z,83.75
2019-01-18T16:31:32.991Z,83.81
2019-01-18T16:34:39.954Z,83.68
2019-01-18T16:37:47.518Z,83.86
2019-01-18T16:40:55.258Z,84.08
2019-01-18T16:44:02.840Z,83.00
2019-01-18T16:47:10.212Z,83.57
2019-01-18T16:50:17.450Z,84.07
2019-01-18T16:53:25.619Z,84.00
2019-01-18T16:56:32.255Z,83.58
2019-01-18T16:59:39.597Z,85.27
2019-01-18T17:02:46.737Z,85.64
2019-01-18T17:05:55.072Z,84.13
2019-01-18T17:09:02.368Z,84.27
2019-01-18T17:12:11.180Z,84.52
2019-01-18T17:15:18.564Z,84.38
2019-01-18T17:18:25.922Z,85.23
2019-01-18T17:21:32.609Z,83.83
2019-01-18T17:24:39.632Z,83.74
2019-01-18T17:27:46.577Z,84.03
2019-01-18T17:30:53.033Z,84.99
2019-01-18T17:33:59.635Z,85.13
2019-01-18T17:37:16.094Z,85.31
2019-01-18T17:40:37.657Z,85.81
2019-01-18T17:44:26.753Z,86.01
2019-01-18T17:47:51.153Z,86.18
2019-01-18T17:51:41.303Z,86.84
2019-01-18T17:55:02.928Z,86.79
2019-01-18T17:58:34.123Z,86.68
2019-01-18T18:02:30.630Z,86.81
2019-01-18T18:06:10.921Z,86.54
2019-01-18T18:09:45.463Z,84.55
2019-01-18T18:13:45.883Z,84.22
2019-01-18T18:17:30.760Z,86.45
2019-01-18T18:21:14.197Z,87.82
2019-01-18T18:25:13.589Z,87.26
2019-01-18T18:29:23.275Z,86.94
2019-01-18T18:33:00.242Z,87.78
2019-01-18T18:37:03.207Z,87.39
2019-01-18T18:40:28.736Z,87.39
2019-01-18T18:44:07.374Z,85.65
2019-01-18T18:47:40.337Z,86.55
2019-01-18T18:51:46.216Z,87.60
2019-01-18T18:55:36.175Z,86.77
2019-01-18T18:59:16.269Z,86.69
2019-01-18T19:02:52.723Z,86.94
2019-01-18T19:06:58.536Z,86.72
2019-01-18T19:10:48.980Z,86.65
2019-01-18T19:14:20.561Z,86.73
2019-01-18T19:18:23.584Z,86.06
2019-01-18T19:22:06.278Z,86.60
2019-01-18T19:25:56.918Z,87.42
2019-01-18T19:30:15.285Z,85.45
2019-01-18T19:33:54.649Z,85.62
2019-01-18T19:37:34.617Z,85.22
2019-01-18T19:41:14.143Z,84.58
2019-01-18T19:44:43.034Z,85.42
2019-01-18T19:48:11.955Z,85.13
2019-01-18T19:51:36.330Z,85.44
2019-01-18T19:55:12.215Z,85.09
2019-01-18T19:58:58.701Z,84.53
2019-01-18T20:02:42.454Z,86.79
2019-01-18T20:06:46.307Z,86.51
2019-01-18T20:10:10.173Z,86.81
2019-01-18T20:13:52.623Z,87.27
2019-01-18T20:17:28.701Z,87.67
2019-01-18T20:21:01.692Z,85.78
2019-01-18T20:24:55.280Z,85.06
2019-01-18T20:28:46.949Z,85.43
2019-01-18T20:32:32.201Z,85.38
2019-01-18T20:36:27.826Z,85.91
2019-01-18T20:40:10.106Z,86.28
2019-01-18T20:43:35.437Z,85.18
2019-01-18T20:47:43.763Z,85.64
2019-01-18T20:51:29.681Z,86.25
2019-01-18T20:55:03.579Z,86.51
2019-01-18T20:58:54.756Z,86.27
2019-01-18T21:02:27.859Z,84.92
2019-01-18T21:06:03.904Z,85.55
2019-01-18T21:09:50.875Z,85.22
2019-01-18T21:13:18.831Z,85.65
2019-01-18T21:16:57.051Z,85.70
2019-01-18T21:20:58.415Z,84.97
2019-01-18T21:25:01.043Z,84.53
2019-01-18T21:29:05.840Z,86.20
2019-01-18T21:33:11.551Z,85.10
2019-01-18T21:36:50.321Z,84.94
2019-01-18T21:40:49.782Z,85.42
2019-01-18T21:44:32.958Z,86.25
2019-01-18T21:48:00.947Z,85.79
2019-01-18T21:51:31.864Z,85.27
2019-01-18T21:55:18.219Z,85.76
2019-01-18T21:59:29.892Z,84.72
2019-01-18T22:02:52.916Z,85.33
2019-01-18T22:06:08.909Z,86.11
2019-01-18T22:09:33.139Z,86.32
2019-01-18T22:13:15.885Z,85.71
2019-01-18T22:17:12.573Z,86.01
2019-01-18T22:21:00.224Z,85.82
2019-01-18T22:24:41.494Z,85.53
2019-01-18T22:28:19.919Z,85.10
2019-01-18T22:31:51.405Z,84.80
2019-01-18T22:35:07.688Z,84.53
2019-01-18T22:38:44.742Z,84.84
2019-01-18T22:42:19.834Z,85.39
2019-01-18T22:45:59.623Z,85.94
2019-01-18T22:49:47.264Z,85.43
2019-01-18T22:53:30.419Z,85.79
2019-01-18T22:57:21.539Z,86.16
2019-01-18T23:01:23.238Z,85.85
2019-01-18T23:05:10.586Z,84.82
2019-01-18T23:08:57.105Z,84.73
2019-01-18T23:12:41.771Z,84.48
2019-01-18T23:16:11.593Z,84.74
2019-01-18T23:19:45.705Z,85.54
2019-01-18T23:23:23.842Z,85.31
2019-01-18T23:27:03.639Z,84.93
2019-01-18T23:30:32.319Z,84.60
2019-01-18T23:34:09.033Z,84.39
2019-01-18T23:37:35.032Z,84.17
2019-01-18T23:41:28.519Z,84.33
2019-01-18T23:45:18.926Z,84.03
2019-01-18T23:49:18.765Z,84.33
2019-01-18T23:52:59.312Z,84.23
2019-01-18T23:56:39.687Z,84.71
